Time;durP1;ratioP1;P1;durP2;ratioP2;P2;SDS_P1;SDS_P2;PMS_P1;PMS_P2;Temp;Humidity;BMP_temperature;BMP_pressure;BME280_temperature;BME280_humidity;BME280_pressure;Samples;Min_cycle;Max_cycle;Signal;HPM_P1;HPM_P2
2022/07/10 00:01:16;;;;;;;;;;;;;;;20.61;56.45;99349.97;3158577;28;20386;-66
2022/07/10 00:02:47;;;;;;;;;;;;;;;20.60;56.28;99348.31;3158649;28;20340;-67
2022/07/10 00:04:19;;;;;;;;;;;;;;;20.61;56.50;99341.19;3158270;28;19934;-66
2022/07/10 00:05:51;;;;;;;;;;;;;;;20.57;56.52;99343.31;3158780;28;20023;-67
2022/07/10 00:07:21;;;;;;;;;;;;;;;20.56;56.66;99348.75;3170021;28;20034;-67
2022/07/10 00:08:55;;;;;;;;;;;;;;;20.53;56.59;99334.00;3158762;28;19928;-66
2022/07/10 00:10:28;;;;;;;;;;;;;;;20.50;56.92;99343.97;3158485;28;20461;-67
2022/07/10 00:11:59;;;;;;;;;;;;;;;20.50;56.96;99341.34;3158719;28;20036;-66
2022/07/10 00:13:30;;;;;;;;;;;;;;;20.49;57.01;99334.38;3158391;28;19931;-67
2022/07/10 00:15:02;;;;;;;;;;;;;;;20.48;56.96;99341.50;3158983;28;19928;-67
2022/07/10 00:16:33;;;;;;;;;;;;;;;20.44;57.33;99335.66;3158571;28;20393;-67
2022/07/10 00:18:05;;;;;;;;;;;;;;;20.44;57.23;99332.19;3157976;28;20377;-67
2022/07/10 00:19:36;;;;;;;;;;;;;;;20.43;57.16;99338.44;3158491;28;19924;-67
2022/07/10 00:21:07;;;;;;;;;;;;;;;20.40;57.21;99328.16;3158472;28;20484;-67
2022/07/10 00:22:38;;;;;;;;;;;;;;;20.41;57.37;99335.13;3158357;28;19924;-67
2022/07/10 00:24:11;;;;;;;;;;;;;;;20.40;57.35;99326.34;3158464;28;20057;-67
2022/07/10 00:25:42;;;;;;;;;;;;;;;20.40;57.14;99323.69;3158301;28;19935;-67
2022/07/10 00:27:13;;;;;;;;;;;;;;;20.38;57.24;99328.31;3158397;28;19985;-67
2022/07/10 00:28:45;;;;;;;;;;;;;;;20.39;57.30;99326.50;3158339;28;20393;-67
2022/07/10 00:30:16;;;;;;;;;;;;;;;20.38;57.20;99319.50;3158074;28;20321;-67
2022/07/10 00:31:47;;;;;;;;;;;;;;;20.37;57.35;99323.16;3158531;28;19928;-67
2022/07/10 00:33:18;;;;;;;;;;;;;;;20.37;57.04;99315.22;3158235;28;19935;-67
2022/07/10 00:34:49;;;;;;;;;;;;;;;20.35;56.95;99312.72;3158180;28;19931;-67
2022/07/10 00:36:21;;;;;;;;;;;;;;;20.35;57.13;99317.16;3160869;28;19924;-67
2022/07/10 00:37:52;;;;;;;;;;;;;;;20.34;57.10;99323.44;3157742;28;20031;-67
2022/07/10 00:39:26;;;;;;;;;;;;;;;20.35;56.88;99314.50;3158216;28;19924;-67
2022/07/10 00:40:57;;;;;;;;;;;;;;;20.32;56.87;99312.16;3157883;28;19936;-67
2022/07/10 00:42:29;;;;;;;;;;;;;;;20.34;56.89;99307.56;3158376;28;20294;-67
2022/07/10 00:44:01;;;;;;;;;;;;;;;20.34;57.18;99312.84;3157984;28;20009;-67
2022/07/10 00:45:32;;;;;;;;;;;;;;;20.34;56.74;99305.75;3158137;28;20060;-67
2022/07/10 00:47:04;;;;;;;;;;;;;;;20.31;56.55;99306.03;3158134;28;20075;-66
2022/07/10 00:48:35;;;;;;;;;;;;;;;20.31;56.44;99307.84;3158272;28;19928;-66
2022/07/10 00:50:08;;;;;;;;;;;;;;;20.31;56.52;99307.84;3158128;28;19993;-67
2022/07/10 00:51:39;;;;;;;;;;;;;;;20.29;56.46;99300.09;3157889;28;19927;-67
2022/07/10 00:53:10;;;;;;;;;;;;;;;20.29;56.32;99299.22;3158427;28;20026;-67
2022/07/10 00:54:43;;;;;;;;;;;;;;;20.30;56.49;99301.75;3158323;28;19973;-67
2022/07/10 00:56:16;;;;;;;;;;;;;;;20.32;56.26;99298.94;3157718;28;20005;-67
2022/07/10 00:57:48;;;;;;;;;;;;;;;20.31;56.10;99297.28;3155752;28;20418;-67
2022/07/10 00:59:19;;;;;;;;;;;;;;;20.32;56.05;99294.50;3153494;28;20144;-67
2022/07/10 01:00:51;;;;;;;;;;;;;;;20.34;56.01;99297.00;3157942;28;20019;-67
2022/07/10 01:02:22;;;;;;;;;;;;;;;20.34;55.90;99291.72;3158000;28;19935;-67
2022/07/10 01:03:54;;;;;;;;;;;;;;;20.34;56.22;99295.19;3157495;28;19924;-68
2022/07/10 01:05:26;;;;;;;;;;;;;;;20.35;55.82;99288.06;3158075;28;19935;-67
2022/07/10 01:06:57;;;;;;;;;;;;;;;20.35;55.78;99291.56;3165924;28;19927;-67
2022/07/10 01:08:29;;;;;;;;;;;;;;;20.37;55.73;99296.72;3161358;28;19935;-67
2022/07/10 01:10:02;;;;;;;;;;;;;;;20.38;55.79;99298.38;3158043;28;19924;-68
2022/07/10 01:11:34;;;;;;;;;;;;;;;20.39;55.75;99289.47;3158023;28;19960;-67
2022/07/10 01:13:06;;;;;;;;;;;;;;;20.40;55.46;99291.97;3157949;28;19924;-68
2022/07/10 01:14:39;;;;;;;;;;;;;;;20.42;55.46;99294.47;3157903;28;19980;-67
2022/07/10 01:16:11;;;;;;;;;;;;;;;20.43;55.58;99290.84;3157971;28;19967;-67
2022/07/10 01:17:43;;;;;;;;;;;;;;;20.42;55.48;99287.38;3157892;28;19990;-67
2022/07/10 01:19:14;;;;;;;;;;;;;;;20.40;55.55;99286.66;3158121;28;19924;-67
2022/07/10 01:20:47;;;;;;;;;;;;;;;20.40;55.32;99291.13;3157705;28;19924;-67
2022/07/10 01:22:20;;;;;;;;;;;;;;;20.40;55.47;99291.13;3158225;28;19977;-67
2022/07/10 01:23:51;;;;;;;;;;;;;;;20.39;55.27;99286.81;3157999;28;19924;-67
2022/07/10 01:25:24;;;;;;;;;;;;;;;20.38;55.31;99288.63;3157661;28;20004;-67
2022/07/10 01:26:56;;;;;;;;;;;;;;;20.42;55.24;99292.66;3157956;28;19924;-67
2022/07/10 01:28:26;;;;;;;;;;;;;;;20.44;55.25;99292.53;3157848;28;19935;-67
2022/07/10 01:29:58;;;;;;;;;;;;;;;20.45;55.29;99294.19;3157302;28;19924;-67
2022/07/10 01:31:30;;;;;;;;;;;;;;;20.45;55.27;99289.72;3157750;28;19928;-66
2022/07/10 01:33:01;;;;;;;;;;;;;;;20.49;55.30;99294.72;3157780;28;19928;-67
2022/07/10 01:34:33;;;;;;;;;;;;;;;20.52;55.03;99289.13;3157470;28;19997;-67
2022/07/10 01:36:04;;;;;;;;;;;;;;;20.53;55.23;99289.03;3158343;28;19935;-67
2022/07/10 01:37:37;;;;;;;;;;;;;;;20.55;55.00;99281.78;3157691;28;19924;-67
2022/07/10 01:39:08;;;;;;;;;;;;;;;20.56;54.96;99293.22;3157900;28;20002;-67
2022/07/10 01:40:40;;;;;;;;;;;;;;;20.56;54.87;99286.09;3157712;28;20327;-67
2022/07/10 01:42:10;;;;;;;;;;;;;;;20.55;54.85;99280.94;3157438;28;19978;-67
2022/07/10 01:43:44;;;;;;;;;;;;;;;20.56;55.02;99279.97;3157878;28;20476;-67
2022/07/10 01:45:17;;;;;;;;;;;;;;;20.57;54.90;99277.19;3158014;28;19936;-67
2022/07/10 01:46:49;;;;;;;;;;;;;;;20.57;54.92;99277.19;3157862;28;19977;-67
2022/07/10 01:48:21;;;;;;;;;;;;;;;20.57;54.82;99277.19;3157589;28;20002;-67
2022/07/10 01:49:53;;;;;;;;;;;;;;;20.59;54.87;99267.28;3159982;28;19928;-67
2022/07/10 01:51:25;;;;;;;;;;;;;;;20.63;54.74;99266.00;3160397;28;19924;-67
2022/07/10 01:52:57;;;;;;;;;;;;;;;20.65;54.78;99268.53;3160110;28;19968;-67
2022/07/10 01:54:29;;;;;;;;;;;;;;;20.67;54.63;99264.75;3159857;28;20007;-67
2022/07/10 01:56:01;;;;;;;;;;;;;;;20.66;54.56;99260.41;3160360;28;19924;-67
2022/07/10 01:57:33;;;;;;;;;;;;;;;20.65;54.45;99263.22;3160060;28;20385;-67
2022/07/10 01:59:04;;;;;;;;;;;;;;;20.60;54.52;99258.38;3160007;28;20003;-67
2022/07/10 02:00:36;;;;;;;;;;;;;;;20.61;54.48;99256.53;3160097;28;19924;-67
2022/07/10 02:02:08;;;;;;;;;;;;;;;20.58;54.38;99257.66;3159995;28;20462;-67
2022/07/10 02:05:27;;;;;;;;;;;;;;;20.58;54.21;99251.53;3160388;28;19959;-67
2022/07/10 02:06:59;;;;;;;;;;;;;;;20.53;54.55;99254.66;3167829;28;19930;-67
2022/07/10 02:08:32;;;;;;;;;;;;;;;20.47;54.61;99249.91;3163385;28;19935;-67
2022/07/10 02:10:04;;;;;;;;;;;;;;;20.40;54.70;99249.63;3159958;28;20011;-67
2022/07/10 02:11:34;;;;;;;;;;;;;;;20.38;54.77;99251.63;3160034;28;19931;-67
2022/07/10 02:13:06;;;;;;;;;;;;;;;20.35;54.94;99246.63;3160211;28;19930;-67
2022/07/10 02:14:38;;;;;;;;;;;;;;;20.33;54.79;99250.38;3160385;28;19947;-67
2022/07/10 02:16:08;;;;;;;;;;;;;;;20.34;54.97;99257.31;3159996;28;19928;-67
2022/07/10 02:17:40;;;;;;;;;;;;;;;20.33;54.90;99255.69;3159992;28;20312;-67
2022/07/10 02:19:12;;;;;;;;;;;;;;;20.29;55.10;99262.22;3160280;28;19977;-67
2022/07/10 02:20:44;;;;;;;;;;;;;;;20.27;54.90;99256.25;3160399;28;19924;-65
2022/07/10 02:22:15;;;;;;;;;;;;;;;20.28;55.10;99265.84;3160523;28;19967;-67
2022/07/10 02:23:48;;;;;;;;;;;;;;;20.23;55.08;99258.31;3159665;28;19924;-68
2022/07/10 02:25:19;;;;;;;;;;;;;;;20.26;54.99;99259.84;3160100;28;20357;-67
2022/07/10 02:26:50;;;;;;;;;;;;;;;20.25;55.23;99266.97;3159942;28;19928;-66
2022/07/10 02:28:22;;;;;;;;;;;;;;;20.23;55.11;99267.13;3159845;28;19928;-67
2022/07/10 02:29:54;;;;;;;;;;;;;;;20.21;55.00;99268.25;3160071;28;19924;-68
2022/07/10 02:31:25;;;;;;;;;;;;;;;20.15;55.13;99272.28;3160204;28;20264;-65
2022/07/10 02:32:57;;;;;;;;;;;;;;;20.14;55.05;99265.34;3159791;28;19989;-68
2022/07/10 02:34:29;;;;;;;;;;;;;;;20.14;55.06;99267.97;3159933;28;19928;-67
2022/07/10 02:36:01;;;;;;;;;;;;;;;20.10;55.20;99261.31;3159612;28;19928;-68
2022/07/10 02:37:32;;;;;;;;;;;;;;;20.08;55.32;99273.00;3161972;28;19928;-68
2022/07/10 02:39:06;;;;;;;;;;;;;;;20.04;55.14;99266.34;3160248;28;19947;-65
2022/07/10 02:40:37;;;;;;;;;;;;;;;19.97;55.22;99263.44;3159792;28;19928;-68
2022/07/10 02:42:09;;;;;;;;;;;;;;;19.97;55.12;99266.06;3159974;28;19924;-68
2022/07/10 02:43:40;;;;;;;;;;;;;;;19.95;55.23;99262.72;3160102;28;19981;-68
2022/07/10 02:45:12;;;;;;;;;;;;;;;19.94;55.45;99259.25;3159747;28;19924;-66
2022/07/10 02:46:43;;;;;;;;;;;;;;;19.93;55.55;99262.84;3159983;28;19924;-66
2022/07/10 02:48:15;;;;;;;;;;;;;;;19.91;55.35;99259.53;3159993;28;20023;-66
2022/07/10 02:49:47;;;;;;;;;;;;;;;19.92;55.39;99270.94;3160023;28;19931;-66
2022/07/10 02:51:18;;;;;;;;;;;;;;;19.89;55.39;99266.78;3160215;28;19986;-66
2022/07/10 02:52:49;;;;;;;;;;;;;;;19.88;55.36;99264.28;3159518;28;20030;-66
2022/07/10 02:54:22;;;;;;;;;;;;;;;19.85;55.66;99270.69;3159470;28;19928;-66
2022/07/10 02:55:54;;;;;;;;;;;;;;;19.83;55.80;99267.34;3156219;28;19924;-66
2022/07/10 02:57:25;;;;;;;;;;;;;;;19.82;55.98;99267.47;3159865;28;19985;-66
2022/07/10 02:58:57;;;;;;;;;;;;;;;19.80;55.99;99264.97;3159444;28;19928;-66
2022/07/10 03:00:29;;;;;;;;;;;;;;;19.79;55.94;99268.59;3158738;28;19928;-66
2022/07/10 03:02:00;;;;;;;;;;;;;;;19.76;55.97;99269.72;3159492;28;19924;-66
2022/07/10 03:03:32;;;;;;;;;;;;;;;19.75;56.05;99273.31;3158963;28;19971;-66
2022/07/10 03:05:04;;;;;;;;;;;;;;;19.71;56.28;99271.94;3160079;28;19925;-66
2022/07/10 03:06:36;;;;;;;;;;;;;;;19.70;56.27;99275.56;3164871;28;19999;-66
2022/07/10 03:08:08;;;;;;;;;;;;;;;19.65;56.47;99280.44;3166559;28;20408;-66
2022/07/10 03:09:41;;;;;;;;;;;;;;;19.63;56.71;99276.22;3159401;28;19931;-67
2022/07/10 03:11:12;;;;;;;;;;;;;;;19.61;56.79;99276.38;3159213;28;19981;-67
2022/07/10 03:12:44;;;;;;;;;;;;;;;19.60;56.98;99277.34;3159490;28;20332;-67
2022/07/10 03:14:16;;;;;;;;;;;;;;;19.58;56.91;99283.72;3159639;28;19924;-67
2022/07/10 03:15:48;;;;;;;;;;;;;;;19.55;57.07;99283.06;3159128;28;20012;-67
2022/07/10 03:17:19;;;;;;;;;;;;;;;19.54;57.32;99285.81;3159517;28;20429;-69
2022/07/10 03:18:50;;;;;;;;;;;;;;;19.55;57.25;99282.19;3159793;28;19928;-66
2022/07/10 03:20:22;;;;;;;;;;;;;;;19.53;57.39;99284.16;3159424;28;19928;-67
2022/07/10 03:21:54;;;;;;;;;;;;;;;19.51;57.37;99280.81;3158744;28;19924;-66
2022/07/10 03:23:25;;;;;;;;;;;;;;;19.49;57.57;99282.75;3159655;28;19924;-66
2022/07/10 03:24:58;;;;;;;;;;;;;;;19.46;57.67;99281.25;3159886;28;20098;-66
2022/07/10 03:26:30;;;;;;;;;;;;;;;19.41;57.84;99272.91;3159463;28;19969;-68
2022/07/10 03:28:00;;;;;;;;;;;;;;;19.43;57.91;99270.97;3159235;28;20393;-66
2022/07/10 03:29:32;;;;;;;;;;;;;;;19.41;57.81;99278.19;3158885;28;20015;-66
2022/07/10 03:31:04;;;;;;;;;;;;;;;19.40;57.88;99275.66;3159800;28;19958;-68
2022/07/10 03:32:36;;;;;;;;;;;;;;;19.37;57.98;99268.00;3158914;28;19928;-66
2022/07/10 03:34:07;;;;;;;;;;;;;;;19.36;58.17;99274.28;3159033;28;19989;-66
2022/07/10 03:35:39;;;;;;;;;;;;;;;19.33;58.14;99267.47;3159131;28;19947;-67
2022/07/10 03:37:11;;;;;;;;;;;;;;;19.32;58.40;99269.28;3161830;28;19931;-68
2022/07/10 03:38:43;;;;;;;;;;;;;;;19.31;58.25;99264.13;3159176;28;19935;-68
2022/07/10 03:40:16;;;;;;;;;;;;;;;19.32;58.42;99261.34;3158938;28;20017;-68
2022/07/10 03:41:48;;;;;;;;;;;;;;;19.33;58.46;99270.94;3158865;28;19928;-68
2022/07/10 03:43:20;;;;;;;;;;;;;;;19.36;58.47;99258.44;3159612;28;19932;-67
2022/07/10 03:44:50;;;;;;;;;;;;;;;19.37;58.74;99255.66;3159183;28;19928;-68
2022/07/10 03:46:22;;;;;;;;;;;;;;;19.39;58.64;99260.81;3158800;28;19976;-68
2022/07/10 03:47:53;;;;;;;;;;;;;;;19.38;58.67;99261.78;3159046;28;19924;-68
2022/07/10 03:49:25;;;;;;;;;;;;;;;19.38;58.78;99257.34;3159008;28;19924;-68
2022/07/10 03:50:56;;;;;;;;;;;;;;;19.39;58.79;99253.72;3158776;28;19931;-68
2022/07/10 03:52:28;;;;;;;;;;;;;;;19.39;58.96;99256.34;3158902;28;19924;-68
2022/07/10 03:53:59;;;;;;;;;;;;;;;19.40;58.95;99247.44;3159299;28;19925;-66
2022/07/10 03:55:32;;;;;;;;;;;;;;;19.42;58.90;99255.25;3158515;28;19928;-66
2022/07/10 03:59:04;;;;;;;;;;;;;;;19.43;59.04;99248.97;3132666;28;19982;-66
2022/07/10 04:00:38;;;;;;;;;;;;;;;19.41;59.10;99251.78;3132843;28;20015;-66
2022/07/10 04:02:08;;;;;;;;;;;;;;;19.42;59.00;99252.59;3159277;28;19924;-66
2022/07/10 04:03:40;;;;;;;;;;;;;;;19.44;58.79;99253.31;3159039;28;19924;-66
2022/07/10 04:05:11;;;;;;;;;;;;;;;19.45;58.95;99253.16;3159011;28;19928;-66
2022/07/10 04:06:43;;;;;;;;;;;;;;;19.47;58.95;99255.66;3164709;28;19923;-66
2022/07/10 04:08:15;;;;;;;;;;;;;;;19.48;58.79;99252.03;3164724;28;19931;-67
2022/07/10 04:09:45;;;;;;;;;;;;;;;19.52;58.77;99253.41;3158807;28;19924;-66
2022/07/10 04:11:18;;;;;;;;;;;;;;;19.51;58.72;99260.50;3158512;28;20008;-66
2022/07/10 04:12:50;;;;;;;;;;;;;;;19.50;58.76;99256.22;3158934;28;19924;-66
2022/07/10 04:14:21;;;;;;;;;;;;;;;19.50;58.71;99261.50;3158401;28;19928;-66
2022/07/10 04:15:53;;;;;;;;;;;;;;;19.50;58.93;99255.38;3158704;28;19981;-66
2022/07/10 04:17:25;;;;;;;;;;;;;;;19.51;58.83;99254.41;3158678;28;19927;-66
2022/07/10 04:18:56;;;;;;;;;;;;;;;19.51;58.76;99255.22;3159141;28;19938;-66
2022/07/10 04:20:28;;;;;;;;;;;;;;;19.55;58.83;99250.50;3158928;28;19993;-66
2022/07/10 04:21:59;;;;;;;;;;;;;;;19.55;58.82;99243.44;3158398;28;20298;-66
2022/07/10 04:23:31;;;;;;;;;;;;;;;19.57;58.85;99240.63;3158712;28;20207;-66
2022/07/10 04:25:04;;;;;;;;;;;;;;;19.59;58.82;99248.44;3159304;28;20412;-66
2022/07/10 04:26:38;;;;;;;;;;;;;;;19.64;58.58;99256.75;3158895;28;20114;-66
2022/07/10 04:28:09;;;;;;;;;;;;;;;19.67;58.76;99251.22;3158039;28;20048;-66
2022/07/10 04:29:41;;;;;;;;;;;;;;;19.69;58.56;99244.81;3158421;28;19985;-66
2022/07/10 04:31:11;;;;;;;;;;;;;;;19.73;58.64;99250.69;3159473;28;19928;-66
2022/07/10 04:32:43;;;;;;;;;;;;;;;19.75;58.42;99244.25;3158661;28;19940;-66
2022/07/10 04:34:14;;;;;;;;;;;;;;;19.76;58.43;99239.84;3159061;28;19931;-66
2022/07/10 04:35:46;;;;;;;;;;;;;;;19.78;58.30;99245.78;3159238;28;19924;-66
2022/07/10 04:37:18;;;;;;;;;;;;;;;19.80;58.30;99237.72;3161627;28;19932;-66
2022/07/10 04:38:49;;;;;;;;;;;;;;;19.83;58.34;99243.56;3158789;28;19931;-66
2022/07/10 04:40:20;;;;;;;;;;;;;;;19.86;58.33;99245.09;3158377;28;19928;-66
2022/07/10 04:41:54;;;;;;;;;;;;;;;19.88;57.89;99245.78;3159208;28;19927;-66
2022/07/10 04:43:25;;;;;;;;;;;;;;;19.89;57.89;99250.91;3158993;28;20317;-66
2022/07/10 04:44:57;;;;;;;;;;;;;;;19.93;58.00;99257.56;3158722;28;20489;-67
2022/07/10 04:46:29;;;;;;;;;;;;;;;19.96;57.88;99257.28;3158910;28;20581;-67
2022/07/10 04:48:00;;;;;;;;;;;;;;;20.01;57.92;99267.44;3159086;28;19924;-67
2022/07/10 04:49:33;;;;;;;;;;;;;;;20.03;57.71;99260.22;3158660;28;19932;-66
2022/07/10 04:51:04;;;;;;;;;;;;;;;20.05;57.47;99266.16;3157918;28;19924;-67
2022/07/10 04:52:36;;;;;;;;;;;;;;;20.02;57.40;99265.63;3055710;28;20406;-67
2022/07/10 04:54:08;;;;;;;;;;;;;;;20.07;57.13;99274.81;3148985;28;19930;-67
2022/07/10 04:55:39;;;;;;;;;;;;;;;20.07;57.19;99273.97;3155975;28;19924;-67
2022/07/10 04:57:12;;;;;;;;;;;;;;;20.09;57.43;99278.16;3158208;28;19977;-67
2022/07/10 04:58:43;;;;;;;;;;;;;;;20.08;57.12;99273.00;3158052;28;19924;-67
2022/07/10 05:00:15;;;;;;;;;;;;;;;20.07;57.21;99268.69;3158565;28;19939;-67
2022/07/10 05:01:47;;;;;;;;;;;;;;;20.05;57.35;99263.53;3158629;28;20040;-67
2022/07/10 05:03:18;;;;;;;;;;;;;;;20.05;57.39;99265.34;3158494;28;19977;-67
2022/07/10 05:04:50;;;;;;;;;;;;;;;20.06;57.39;99270.50;3158237;28;19924;-67
2022/07/10 05:06:22;;;;;;;;;;;;;;;20.09;57.40;99272.03;3160445;28;20482;-67
2022/07/10 05:07:53;;;;;;;;;;;;;;;20.13;57.22;99274.22;3166847;28;20408;-67
2022/07/10 05:09:25;;;;;;;;;;;;;;;20.14;57.36;99270.63;3158252;28;20037;-67
2022/07/10 05:10:57;;;;;;;;;;;;;;;20.18;57.26;99268.53;3157998;28;19943;-67
2022/07/10 05:12:29;;;;;;;;;;;;;;;20.18;57.31;99265.88;3158169;28;20393;-67
2022/07/10 05:14:01;;;;;;;;;;;;;;;20.22;57.46;99268.06;3155476;28;19924;-67
2022/07/10 05:15:33;;;;;;;;;;;;;;;20.25;57.49;99269.59;3157818;28;19928;-67
2022/07/10 05:17:05;;;;;;;;;;;;;;;20.30;57.37;99277.13;3159021;28;20286;-67
2022/07/10 05:18:36;;;;;;;;;;;;;;;20.35;57.40;99278.34;3158726;28;19959;-67
2022/07/10 05:20:08;;;;;;;;;;;;;;;20.40;57.16;99276.09;3158129;28;19928;-66
2022/07/10 05:21:40;;;;;;;;;;;;;;;20.47;57.08;99279.00;3153194;28;19924;-67
2022/07/10 05:23:11;;;;;;;;;;;;;;;20.51;56.97;99283.03;3149811;28;19924;-67
2022/07/10 05:24:43;;;;;;;;;;;;;;;20.58;57.07;99281.47;3158161;28;19935;-67
2022/07/10 05:26:14;;;;;;;;;;;;;;;20.64;56.72;99278.25;3158765;28;20371;-67
2022/07/10 05:27:47;;;;;;;;;;;;;;;20.70;56.74;99290.06;3158897;28;19981;-70
2022/07/10 05:29:19;;;;;;;;;;;;;;;20.75;56.35;99276.41;3158691;28;19928;-67
2022/07/10 05:30:51;;;;;;;;;;;;;;;20.80;56.45;99284.75;3158530;28;19942;-67
2022/07/10 05:32:25;;;;;;;;;;;;;;;20.83;56.26;99273.84;3158209;28;19975;-67
2022/07/10 05:33:56;;;;;;;;;;;;;;;20.85;56.40;99283.31;3158196;28;19924;-67
2022/07/10 05:35:27;;;;;;;;;;;;;;;20.87;56.03;99275.22;3157913;28;20025;-67
2022/07/10 05:36:58;;;;;;;;;;;;;;;20.86;55.92;99279.69;3161284;28;19955;-67
2022/07/10 05:38:30;;;;;;;;;;;;;;;20.86;56.28;99287.63;3158386;28;19931;-67
2022/07/10 05:40:02;;;;;;;;;;;;;;;20.88;56.05;99283.03;3158328;28;20362;-67
2022/07/10 05:41:33;;;;;;;;;;;;;;;20.91;56.20;99279.22;3158375;28;19985;-67
2022/07/10 05:43:07;;;;;;;;;;;;;;;20.92;56.27;99277.44;3158282;28;20019;-67
2022/07/10 05:44:37;;;;;;;;;;;;;;;20.94;56.34;99280.75;3157827;28;19928;-67
2022/07/10 05:46:09;;;;;;;;;;;;;;;20.95;55.94;99280.59;3158229;28;20385;-67
2022/07/10 05:47:40;;;;;;;;;;;;;;;21.01;55.96;99273.88;3157894;28;19931;-67
2022/07/10 05:49:12;;;;;;;;;;;;;;;21.09;55.75;99287.22;3157627;28;19931;-67
2022/07/10 05:50:42;;;;;;;;;;;;;;;21.13;55.61;99276.16;3157872;28;19927;-67
2022/07/10 05:52:14;;;;;;;;;;;;;;;21.18;55.46;99280.16;3157744;28;20019;-67
2022/07/10 05:53:46;;;;;;;;;;;;;;;21.24;55.54;99279.59;3157703;28;21846;-67
2022/07/10 05:55:18;;;;;;;;;;;;;;;21.32;55.18;99274.34;3158319;28;19950;-66
2022/07/10 05:56:51;;;;;;;;;;;;;;;21.38;54.80;99271.13;3158478;28;19932;-67
2022/07/10 05:58:26;;;;;;;;;;;;;;;21.43;54.83;99274.16;3158340;28;19928;-67
2022/07/10 06:00:03;;;;;;;;;;;;;;;21.46;54.50;99268.56;3158397;28;20325;-67
2022/07/10 06:01:35;;;;;;;;;;;;;;;21.48;54.49;99271.09;3158241;28;19959;-67
2022/07/10 06:03:07;;;;;;;;;;;;;;;21.53;54.58;99272.28;3158398;28;19931;-67
2022/07/10 06:04:39;;;;;;;;;;;;;;;21.61;54.54;99286.59;3158491;28;19924;-66
2022/07/10 06:06:15;;;;;;;;;;;;;;;21.67;54.22;99278.03;3159150;28;20005;-66
2022/07/10 06:07:46;;;;;;;;;;;;;;;21.73;54.38;99282.72;3167844;28;19924;-66
2022/07/10 06:09:18;;;;;;;;;;;;;;;21.78;54.21;99280.44;3158392;28;19923;-67
2022/07/10 06:10:50;;;;;;;;;;;;;;;21.83;54.05;99286.13;3157589;28;20310;-67
2022/07/10 06:12:20;;;;;;;;;;;;;;;21.88;53.78;99277.69;3158192;28;19989;-67
2022/07/10 06:13:53;;;;;;;;;;;;;;;21.92;53.84;99281.72;3157935;28;19978;-67
2022/07/10 06:15:25;;;;;;;;;;;;;;;21.98;53.93;99284.56;3158543;28;20015;-66
2022/07/10 06:16:56;;;;;;;;;;;;;;;22.03;53.76;99281.44;3158169;28;19961;-67
2022/07/10 06:18:27;;;;;;;;;;;;;;;22.03;53.32;99274.31;3157809;28;20610;-67
2022/07/10 06:19:59;;;;;;;;;;;;;;;22.01;53.68;99275.47;3158381;28;19967;-67
2022/07/10 06:21:31;;;;;;;;;;;;;;;22.05;53.48;99284.78;3157812;28;20004;-67
2022/07/10 06:23:01;;;;;;;;;;;;;;;22.08;53.47;99281.81;3157745;28;19928;-67
2022/07/10 06:24:33;;;;;;;;;;;;;;;22.06;53.17;99277.66;3157786;28;20293;-67
2022/07/10 06:26:04;;;;;;;;;;;;;;;22.08;53.53;99275.69;3157924;28;19932;-67
2022/07/10 06:27:36;;;;;;;;;;;;;;;22.11;53.24;99281.50;3157742;28;19928;-66
2022/07/10 06:29:09;;;;;;;;;;;;;;;22.12;53.36;99277.03;3157863;28;20310;-67
2022/07/10 06:30:41;;;;;;;;;;;;;;;22.10;53.31;99279.03;3157544;28;19989;-67
2022/07/10 06:32:12;;;;;;;;;;;;;;;22.11;53.40;99278.84;3157944;28;20429;-67
2022/07/10 06:33:44;;;;;;;;;;;;;;;22.15;53.08;99269.56;3157606;28;19944;-67
2022/07/10 06:35:15;;;;;;;;;;;;;;;22.20;52.79;99277.13;3157746;28;19924;-67
2022/07/10 06:36:46;;;;;;;;;;;;;;;22.22;52.54;99280.44;3162307;28;19924;-67
2022/07/10 06:38:18;;;;;;;;;;;;;;;22.24;52.68;99286.41;3160592;28;19992;-66
2022/07/10 06:39:49;;;;;;;;;;;;;;;22.26;52.47;99287.91;3160364;28;19928;-67
2022/07/10 06:41:21;;;;;;;;;;;;;;;22.32;52.53;99280.31;3160678;28;20363;-67
2022/07/10 06:42:53;;;;;;;;;;;;;;;22.37;52.35;99280.69;3160193;28;20010;-67
2022/07/10 06:44:26;;;;;;;;;;;;;;;22.43;52.38;99280.91;3159918;28;19989;-67
2022/07/10 06:45:57;;;;;;;;;;;;;;;22.45;52.43;99286.03;3159835;28;19928;-67
2022/07/10 06:49:18;;;;;;;;;;;;;;;22.38;52.55;99285.00;3160247;28;19925;-67
2022/07/10 06:50:50;;;;;;;;;;;;;;;22.44;52.63;99287.84;3158142;28;20302;-67
2022/07/10 06:52:25;;;;;;;;;;;;;;;22.49;52.47;99287.38;3158935;28;19971;-66
2022/07/10 06:53:58;;;;;;;;;;;;;;;22.57;52.69;99291.88;3160145;28;19928;-67
2022/07/10 06:55:29;;;;;;;;;;;;;;;22.62;52.24;99287.78;3159617;28;20408;-67
2022/07/10 06:57:01;;;;;;;;;;;;;;;22.71;52.15;99291.28;3160019;28;19981;-67
2022/07/10 06:58:33;;;;;;;;;;;;;;;22.81;52.23;99288.53;3159608;28;19977;-67
2022/07/10 07:00:07;;;;;;;;;;;;;;;22.77;51.58;99280.03;3159405;28;19935;-67
2022/07/10 07:01:39;;;;;;;;;;;;;;;22.90;51.73;99293.72;3159864;28;19924;-67
2022/07/10 07:03:10;;;;;;;;;;;;;;;22.88;51.43;99282.41;3159530;28;19924;-67
2022/07/10 07:04:42;;;;;;;;;;;;;;;22.91;51.36;99286.56;3159770;28;20034;-67
2022/07/10 07:06:13;;;;;;;;;;;;;;;22.97;51.42;99287.78;3159371;28;19924;-67
2022/07/10 07:07:45;;;;;;;;;;;;;;;22.96;51.55;99289.59;3159978;28;19928;-67
2022/07/10 07:09:17;;;;;;;;;;;;;;;23.00;51.73;99287.47;3160122;28;19924;-67
2022/07/10 07:10:48;;;;;;;;;;;;;;;23.04;51.71;99289.63;3159676;28;19925;-67
2022/07/10 07:12:20;;;;;;;;;;;;;;;23.09;51.72;99286.47;3159429;28;20388;-67
2022/07/10 07:13:52;;;;;;;;;;;;;;;23.15;51.56;99276.03;3160175;28;19967;-67
2022/07/10 07:15:26;;;;;;;;;;;;;;;23.25;51.40;99277.72;3160079;28;20476;-67
2022/07/10 07:17:03;;;;;;;;;;;;;;;23.36;51.22;99272.09;3159844;28;19928;-67
2022/07/10 07:18:37;;;;;;;;;;;;;;;23.44;50.72;99268.63;3159658;28;19931;-67
2022/07/10 07:23:43;;;;;;;;;;;;;;;23.72;49.99;99264.69;3155154;28;19928;-67
2022/07/10 07:25:14;;;;;;;;;;;;;;;23.77;49.82;99272.13;3160171;28;19997;-66
2022/07/10 07:26:46;;;;;;;;;;;;;;;23.76;49.74;99265.16;3159515;28;20381;-67
2022/07/10 07:28:19;;;;;;;;;;;;;;;23.77;49.75;99270.31;3158857;28;20003;-68
2022/07/10 07:29:51;;;;;;;;;;;;;;;23.69;49.49;99266.78;3159189;28;20007;-67
2022/07/10 07:31:24;;;;;;;;;;;;;;;23.67;50.03;99269.63;3159574;28;20301;-67
2022/07/10 07:32:55;;;;;;;;;;;;;;;23.60;50.35;99265.94;3159397;28;20490;-68
2022/07/10 07:34:27;;;;;;;;;;;;;;;23.54;50.54;99269.28;3155914;28;19924;-67
2022/07/10 07:36:01;;;;;;;;;;;;;;;23.55;50.56;99268.28;3159579;28;19924;-67
2022/07/10 07:37:35;;;;;;;;;;;;;;;23.59;50.54;99269.63;3157000;28;19928;-67
2022/07/10 07:39:06;;;;;;;;;;;;;;;23.60;50.29;99265.94;3160059;28;19985;-67
2022/07/10 07:40:38;;;;;;;;;;;;;;;23.61;50.31;99265.81;3158944;28;19928;-67
2022/07/10 07:42:08;;;;;;;;;;;;;;;23.63;50.41;99265.63;3159249;28;20397;-67
2022/07/10 07:43:40;;;;;;;;;;;;;;;23.70;50.77;99260.53;3159181;28;19928;-67
2022/07/10 07:45:11;;;;;;;;;;;;;;;23.78;50.65;99264.00;3159153;28;19944;-67
2022/07/10 07:46:44;;;;;;;;;;;;;;;23.85;50.58;99264.16;3158958;28;20393;-67
2022/07/10 07:48:16;;;;;;;;;;;;;;;23.91;50.34;99262.66;3158772;28;19925;-67
2022/07/10 07:49:46;;;;;;;;;;;;;;;23.97;50.37;99257.50;3159206;28;19928;-67
2022/07/10 07:51:18;;;;;;;;;;;;;;;24.07;50.14;99270.59;3159214;28;20038;-67
2022/07/10 07:52:50;;;;;;;;;;;;;;;24.14;49.50;99262.81;3159341;28;19924;-67
2022/07/10 07:54:21;;;;;;;;;;;;;;;24.19;49.25;99263.94;3159450;28;19924;-67
2022/07/10 07:55:54;;;;;;;;;;;;;;;24.26;49.53;99269.41;3159490;28;20363;-67
2022/07/10 07:57:26;;;;;;;;;;;;;;;24.34;49.29;99264.06;3159058;28;20436;-67
2022/07/10 07:58:57;;;;;;;;;;;;;;;24.42;49.05;99265.88;3158812;28;19954;-67
2022/07/10 08:00:29;;;;;;;;;;;;;;;24.48;48.01;99260.72;3158949;28;20023;-67
2022/07/10 08:02:03;;;;;;;;;;;;;;;24.59;48.29;99264.03;3159267;28;20010;-67
2022/07/10 08:03:34;;;;;;;;;;;;;;;24.71;47.82;99260.78;3158290;28;19976;-67
2022/07/10 08:05:05;;;;;;;;;;;;;;;24.87;47.82;99259.06;3159176;28;19935;-67
2022/07/10 08:06:37;;;;;;;;;;;;;;;24.96;47.13;99253.53;3163696;28;19971;-67
2022/07/10 08:08:09;;;;;;;;;;;;;;;25.00;46.61;99267.31;3165740;28;19993;-67